Time;durP1;ratioP1;P1;durP2;ratioP2;P2;SDS_P1;SDS_P2;PMS_P1;PMS_P2;Temp;Humidity;BMP_temperature;BMP_pressure;BME280_temperature;BME280_humidity;BME280_pressure;Samples;Min_cycle;Max_cycle;Signal;HPM_P1;HPM_P2
2021/01/15 00:02:01;;;;;;;;;;;2.40;69.40;;;;;;4986136;28;19929;-76
2021/01/15 00:04:27;;;;;;;;;;;2.40;69.30;;;;;;4972741;28;19958;-76
2021/01/15 00:06:57;;;;;;;;;;;2.40;69.30;;;;;;4979560;28;19934;-76
2021/01/15 00:09:23;;;;;;;;;;;2.40;69.30;;;;;;4961373;28;19942;-76
2021/01/15 00:11:50;;;;;;;;;;;2.40;69.10;;;;;;4983872;28;19977;-76
2021/01/15 00:14:16;;;;;;;;;;;2.40;69.10;;;;;;4985996;28;19933;-76
2021/01/15 00:16:44;;;;;;;;;;;2.40;69.10;;;;;;4980734;28;19926;-76
2021/01/15 00:19:11;;;;;;;;;;;2.40;69.10;;;;;;4963763;28;19940;-76
2021/01/15 00:21:48;;;;;;;;;;;2.40;69.10;;;;;;4984264;28;19930;-76
2021/01/15 00:24:18;;;;;;;;;;;2.40;69.00;;;;;;4981685;28;19926;-76
2021/01/15 00:26:45;;;;;;;;;;;2.40;68.80;;;;;;4978481;28;19926;-76
2021/01/15 00:29:12;;;;;;;;;;;2.40;68.90;;;;;;4955808;28;19969;-76
2021/01/15 00:31:39;;;;;;;;;;;2.40;69.00;;;;;;4979326;28;19938;-76
2021/01/15 00:34:06;;;;;;;;;;;2.40;68.90;;;;;;4980217;28;19933;-76
2021/01/15 00:36:33;;;;;;;;;;;2.40;68.90;;;;;;4983229;28;20348;-75
2021/01/15 00:39:00;;;;;;;;;;;2.40;68.80;;;;;;4972790;28;19968;-76
2021/01/15 00:41:28;;;;;;;;;;;2.30;68.90;;;;;;4979141;28;19926;-75
2021/01/15 00:43:54;;;;;;;;;;;2.30;68.80;;;;;;4972657;28;19948;-75
2021/01/15 00:46:31;;;;;;;;;;;2.30;69.00;;;;;;4949396;28;19937;-78
2021/01/15 00:49:05;;;;;;;;;;;2.30;69.00;;;;;;4970089;28;20042;-75
2021/01/15 00:51:32;;;;;;;;;;;2.30;69.00;;;;;;4980246;28;19926;-76
2021/01/15 00:53:58;;;;;;;;;;;2.20;69.10;;;;;;4985728;28;19934;-75
2021/01/15 00:56:25;;;;;;;;;;;2.30;69.10;;;;;;4968083;28;20294;-75
2021/01/15 00:58:52;;;;;;;;;;;2.20;69.20;;;;;;4980156;28;20017;-77
2021/01/15 01:01:22;;;;;;;;;;;2.20;69.20;;;;;;4974346;28;19925;-77
2021/01/15 01:03:49;;;;;;;;;;;2.20;69.20;;;;;;4983034;28;19937;-75
2021/01/15 01:06:20;;;;;;;;;;;2.20;69.20;;;;;;4984501;28;20007;-77
2021/01/15 01:08:47;;;;;;;;;;;2.20;69.20;;;;;;4982154;28;20424;-77
2021/01/15 01:11:15;;;;;;;;;;;2.20;69.20;;;;;;4983529;28;19932;-75
2021/01/15 01:13:41;;;;;;;;;;;2.20;69.20;;;;;;4985392;28;19934;-77
2021/01/15 01:16:07;;;;;;;;;;;2.20;69.20;;;;;;4969186;28;19933;-77
2021/01/15 01:18:34;;;;;;;;;;;2.10;69.20;;;;;;4966429;28;19961;-78
2021/01/15 01:21:02;;;;;;;;;;;2.10;69.10;;;;;;4986507;28;19940;-77
2021/01/15 01:23:29;;;;;;;;;;;2.10;69.20;;;;;;4983934;28;19929;-77
2021/01/15 01:25:55;;;;;;;;;;;2.10;69.20;;;;;;4973871;28;19914;-77
2021/01/15 01:28:21;;;;;;;;;;;2.10;69.00;;;;;;5003561;28;19968;-77
2021/01/15 01:30:47;;;;;;;;;;;2.10;69.00;;;;;;4986202;28;19926;-77
2021/01/15 01:33:14;;;;;;;;;;;2.10;69.00;;;;;;4971379;28;19934;-77
2021/01/15 01:35:40;;;;;;;;;;;2.10;69.00;;;;;;4990471;28;20651;-77
2021/01/15 01:38:07;;;;;;;;;;;2.10;69.00;;;;;;4989142;28;19936;-77
2021/01/15 01:40:33;;;;;;;;;;;2.10;69.00;;;;;;4965545;28;19925;-77
2021/01/15 01:43:00;;;;;;;;;;;2.00;69.00;;;;;;4971216;28;19925;-77
2021/01/15 01:45:26;;;;;;;;;;;2.00;69.10;;;;;;4959887;28;19933;-77
2021/01/15 01:47:53;;;;;;;;;;;2.00;69.00;;;;;;4968150;28;19937;-77
2021/01/15 01:50:19;;;;;;;;;;;2.00;68.90;;;;;;4979797;28;19930;-77
2021/01/15 01:52:46;;;;;;;;;;;2.00;69.00;;;;;;4962143;28;19965;-77
2021/01/15 01:55:13;;;;;;;;;;;2.00;68.90;;;;;;4973354;28;19980;-78
2021/01/15 01:57:40;;;;;;;;;;;2.00;69.00;;;;;;4969886;28;19934;-77
2021/01/15 02:00:07;;;;;;;;;;;2.00;69.10;;;;;;4985661;28;19988;-78
2021/01/15 02:02:33;;;;;;;;;;;2.00;69.00;;;;;;4988946;28;19932;-77
2021/01/15 02:05:00;;;;;;;;;;;2.00;69.10;;;;;;4974321;28;20710;-77
2021/01/15 02:07:30;;;;;;;;;;;2.00;69.10;;;;;;4987449;28;20012;-77
2021/01/15 02:10:02;;;;;;;;;;;2.00;69.10;;;;;;4989821;28;20021;-77
2021/01/15 02:12:52;;;;;;;;;;;2.00;69.30;;;;;;4984128;28;19926;-77
2021/01/15 02:15:22;;;;;;;;;;;1.90;69.20;;;;;;4985509;28;19934;-77
2021/01/15 02:17:50;;;;;;;;;;;1.90;69.20;;;;;;4981499;28;20342;-77
2021/01/15 02:20:36;;;;;;;;;;;1.90;69.30;;;;;;4973664;28;20017;-77
2021/01/15 02:23:13;;;;;;;;;;;1.90;69.20;;;;;;4970494;28;19934;-77
2021/01/15 02:25:45;;;;;;;;;;;1.90;69.20;;;;;;4979181;28;20008;-77
2021/01/15 02:28:30;;;;;;;;;;;1.90;69.30;;;;;;4983826;28;20271;-77
2021/01/15 02:31:05;;;;;;;;;;;1.90;69.40;;;;;;4964926;28;19960;-78
2021/01/15 02:33:37;;;;;;;;;;;1.90;69.50;;;;;;4973280;28;20282;-77
2021/01/15 02:36:15;;;;;;;;;;;1.90;69.50;;;;;;4984130;28;19929;-77
2021/01/15 02:39:04;;;;;;;;;;;1.90;69.50;;;;;;4985897;28;20025;-77
2021/01/15 02:41:31;;;;;;;;;;;1.90;69.40;;;;;;4962891;28;19952;-77
2021/01/15 02:43:58;;;;;;;;;;;2.00;69.20;;;;;;4983568;28;19941;-77
2021/01/15 02:46:41;;;;;;;;;;;2.00;69.10;;;;;;4983444;28;19988;-77
2021/01/15 02:49:10;;;;;;;;;;;2.00;69.10;;;;;;4968582;28;19930;-77
2021/01/15 02:51:38;;;;;;;;;;;2.00;69.00;;;;;;4986006;28;19933;-78
2021/01/15 02:54:04;;;;;;;;;;;2.00;68.90;;;;;;4987177;28;20374;-77
2021/01/15 02:56:30;;;;;;;;;;;2.00;68.70;;;;;;4954745;28;20011;-77
2021/01/15 02:58:57;;;;;;;;;;;2.00;68.90;;;;;;4968840;28;20358;-77
2021/01/15 03:01:23;;;;;;;;;;;2.10;68.70;;;;;;4986741;28;19965;-77
2021/01/15 03:04:09;;;;;;;;;;;2.10;68.50;;;;;;4984518;28;19940;-77
2021/01/15 03:06:50;;;;;;;;;;;2.10;68.30;;;;;;4960029;28;20008;-77
2021/01/15 03:09:16;;;;;;;;;;;2.10;68.20;;;;;;5004519;28;19932;-77
2021/01/15 03:11:44;;;;;;;;;;;2.10;68.10;;;;;;4969667;28;19926;-77
2021/01/15 03:14:13;;;;;;;;;;;2.10;68.20;;;;;;4990087;28;19934;-75
2021/01/15 03:16:41;;;;;;;;;;;2.10;68.00;;;;;;4983319;28;19976;-75
2021/01/15 03:19:08;;;;;;;;;;;2.10;68.00;;;;;;4973194;28;19926;-75
2021/01/15 03:21:37;;;;;;;;;;;2.10;68.10;;;;;;4965297;28;19930;-75
2021/01/15 03:24:04;;;;;;;;;;;2.10;67.90;;;;;;4971342;28;19933;-75
2021/01/15 03:26:30;;;;;;;;;;;2.10;68.10;;;;;;4991197;28;19938;-75
2021/01/15 03:28:57;;;;;;;;;;;2.10;68.10;;;;;;4982092;28;19949;-75
2021/01/15 03:31:25;;;;;;;;;;;2.10;68.10;;;;;;4950828;28;19926;-75
2021/01/15 03:33:52;;;;;;;;;;;2.10;68.10;;;;;;4970654;28;19965;-75
2021/01/15 03:36:20;;;;;;;;;;;2.10;68.20;;;;;;4983679;28;20400;-75
2021/01/15 03:38:48;;;;;;;;;;;2.20;68.30;;;;;;4963235;28;19930;-75
2021/01/15 03:41:14;;;;;;;;;;;2.10;68.40;;;;;;4982059;28;20013;-75
2021/01/15 03:43:40;;;;;;;;;;;2.10;68.50;;;;;;4967483;28;19929;-75
2021/01/15 03:46:06;;;;;;;;;;;2.10;68.60;;;;;;4967224;28;20119;-75
2021/01/15 03:48:33;;;;;;;;;;;2.10;68.60;;;;;;4969441;28;19933;-76
2021/01/15 03:51:01;;;;;;;;;;;2.10;68.60;;;;;;4966800;28;19934;-76
2021/01/15 03:53:29;;;;;;;;;;;2.20;68.80;;;;;;4965961;28;19936;-76
2021/01/15 03:55:55;;;;;;;;;;;2.20;68.60;;;;;;4986152;28;20371;-76
2021/01/15 03:58:22;;;;;;;;;;;2.20;68.60;;;;;;4984954;28;19929;-76
2021/01/15 04:00:48;;;;;;;;;;;2.20;68.60;;;;;;4981170;28;20359;-76
2021/01/15 04:03:17;;;;;;;;;;;2.20;68.80;;;;;;4980163;28;19980;-76
2021/01/15 04:05:46;;;;;;;;;;;2.20;69.00;;;;;;4986823;28;19929;-76
2021/01/15 04:08:12;;;;;;;;;;;2.20;69.00;;;;;;4966664;28;19933;-76
2021/01/15 04:10:38;;;;;;;;;;;2.20;69.00;;;;;;4979596;28;20362;-76
2021/01/15 04:13:05;;;;;;;;;;;2.20;69.20;;;;;;4982832;28;19925;-76
2021/01/15 04:15:34;;;;;;;;;;;2.20;69.40;;;;;;4950484;28;19932;-76
2021/01/15 04:18:00;;;;;;;;;;;2.20;69.50;;;;;;4964829;28;20004;-75
2021/01/15 04:20:27;;;;;;;;;;;2.20;69.50;;;;;;4983012;28;19926;-76
2021/01/15 04:22:53;;;;;;;;;;;2.20;69.50;;;;;;4981550;28;20020;-76
2021/01/15 04:25:20;;;;;;;;;;;2.20;69.50;;;;;;4979150;28;19934;-76
2021/01/15 04:27:46;;;;;;;;;;;2.20;69.60;;;;;;4979341;28;19926;-76
2021/01/15 04:30:13;;;;;;;;;;;2.30;69.80;;;;;;4972420;28;19934;-76
2021/01/15 04:32:46;;;;;;;;;;;2.30;69.90;;;;;;4983432;28;19964;-75
2021/01/15 04:35:13;;;;;;;;;;;2.30;70.00;;;;;;4986911;28;20673;-76
2021/01/15 04:37:40;;;;;;;;;;;2.30;70.10;;;;;;4983495;28;19932;-75
2021/01/15 04:40:07;;;;;;;;;;;2.30;70.20;;;;;;4967073;28;19926;-76
2021/01/15 04:42:34;;;;;;;;;;;2.40;70.20;;;;;;4965703;28;19925;-76
2021/01/15 04:45:01;;;;;;;;;;;2.40;70.40;;;;;;4984882;28;19932;-76
2021/01/15 04:47:30;;;;;;;;;;;2.40;70.50;;;;;;4958748;28;19964;-76
2021/01/15 04:49:57;;;;;;;;;;;2.40;70.50;;;;;;4996122;28;19933;-76
2021/01/15 04:52:23;;;;;;;;;;;2.40;70.80;;;;;;4978829;28;20016;-75
2021/01/15 04:54:53;;;;;;;;;;;2.40;70.80;;;;;;4974803;28;20321;-76
2021/01/15 04:57:20;;;;;;;;;;;2.40;70.90;;;;;;4986843;28;19926;-76
2021/01/15 04:59:48;;;;;;;;;;;2.40;71.10;;;;;;4981471;28;19926;-76
2021/01/15 05:02:15;;;;;;;;;;;2.40;71.00;;;;;;4984670;28;19929;-75
2021/01/15 05:04:44;;;;;;;;;;;2.40;71.10;;;;;;4988970;28;19930;-75
2021/01/15 05:07:11;;;;;;;;;;;2.40;71.10;;;;;;4986388;28;19930;-76
2021/01/15 05:09:44;;;;;;;;;;;2.40;71.10;;;;;;4974638;28;19948;-76
2021/01/15 05:12:11;;;;;;;;;;;2.40;71.10;;;;;;4973200;28;20013;-76
2021/01/15 05:14:41;;;;;;;;;;;2.40;71.10;;;;;;4987282;28;19956;-75
2021/01/15 05:17:08;;;;;;;;;;;2.40;71.10;;;;;;4984586;28;20528;-76
2021/01/15 05:19:39;;;;;;;;;;;2.40;71.00;;;;;;4987726;28;20473;-76
2021/01/15 05:22:06;;;;;;;;;;;2.40;71.20;;;;;;4986865;28;19983;-76
2021/01/15 05:24:32;;;;;;;;;;;2.40;71.30;;;;;;4985788;28;19941;-75
2021/01/15 05:30:12;;;;;;;;;;;2.40;71.20;;;;;;4987448;28;19925;-76
2021/01/15 05:32:39;;;;;;;;;;;2.40;71.20;;;;;;4986932;28;19926;-76
2021/01/15 05:35:07;;;;;;;;;;;2.50;71.30;;;;;;4983137;28;19969;-76
2021/01/15 05:37:35;;;;;;;;;;;2.50;71.30;;;;;;4985491;28;20378;-76
2021/01/15 05:40:02;;;;;;;;;;;2.50;71.20;;;;;;4985464;28;19926;-76
2021/01/15 05:42:31;;;;;;;;;;;2.50;71.30;;;;;;4972353;28;19925;-76
2021/01/15 05:45:13;;;;;;;;;;;2.50;71.30;;;;;;4990542;28;19925;-75
2021/01/15 05:47:45;;;;;;;;;;;2.50;71.40;;;;;;4984934;28;20459;-76
2021/01/15 05:50:15;;;;;;;;;;;2.50;71.30;;;;;;4986914;28;20021;-76
2021/01/15 05:52:57;;;;;;;;;;;2.60;71.40;;;;;;4967451;28;19952;-76
2021/01/15 05:55:25;;;;;;;;;;;2.60;71.40;;;;;;4983080;28;19933;-75
2021/01/15 05:57:51;;;;;;;;;;;2.60;71.40;;;;;;4969367;28;20012;-76
2021/01/15 06:00:26;;;;;;;;;;;2.60;71.40;;;;;;4967220;28;19930;-75
2021/01/15 06:02:53;;;;;;;;;;;2.60;71.50;;;;;;4983274;28;20040;-76
2021/01/15 06:05:21;;;;;;;;;;;2.60;71.50;;;;;;4981080;28;20394;-76
2021/01/15 06:07:54;;;;;;;;;;;2.60;71.60;;;;;;4982275;28;20297;-76
2021/01/15 06:10:21;;;;;;;;;;;2.60;71.60;;;;;;4984267;28;19936;-75
2021/01/15 06:12:51;;;;;;;;;;;2.60;71.60;;;;;;4983892;28;19930;-76
2021/01/15 06:15:17;;;;;;;;;;;2.60;71.70;;;;;;4956286;28;19981;-76
2021/01/15 06:17:49;;;;;;;;;;;2.60;71.50;;;;;;4969410;28;20398;-75
2021/01/15 06:20:20;;;;;;;;;;;2.60;71.50;;;;;;4979768;28;19984;-76
2021/01/15 06:22:47;;;;;;;;;;;2.60;71.40;;;;;;4971788;28;19945;-76
2021/01/15 06:25:20;;;;;;;;;;;2.60;71.30;;;;;;4986847;28;19926;-75
2021/01/15 06:27:46;;;;;;;;;;;2.60;71.20;;;;;;4980498;28;19940;-75
2021/01/15 06:30:14;;;;;;;;;;;2.60;71.30;;;;;;4988766;28;19926;-76
2021/01/15 06:32:41;;;;;;;;;;;2.70;71.20;;;;;;4991103;28;19940;-75
2021/01/15 06:35:08;;;;;;;;;;;2.70;71.20;;;;;;4986240;28;19926;-76
2021/01/15 06:37:35;;;;;;;;;;;2.70;71.10;;;;;;4992486;28;19968;-75
2021/01/15 06:40:06;;;;;;;;;;;2.70;71.10;;;;;;4966097;28;19933;-76
2021/01/15 06:42:41;;;;;;;;;;;2.70;71.00;;;;;;4971396;28;19927;-75
2021/01/15 06:45:13;;;;;;;;;;;2.80;70.60;;;;;;4988145;28;20020;-75
2021/01/15 06:47:40;;;;;;;;;;;2.70;70.20;;;;;;4965138;28;19988;-75
2021/01/15 06:50:06;;;;;;;;;;;2.70;70.20;;;;;;4963936;28;19932;-75
2021/01/15 06:52:35;;;;;;;;;;;2.70;70.20;;;;;;4969968;28;19956;-75
2021/01/15 06:55:02;;;;;;;;;;;2.80;69.80;;;;;;4970257;28;19933;-75
2021/01/15 06:57:29;;;;;;;;;;;2.70;69.70;;;;;;4989297;28;19926;-75
2021/01/15 06:59:57;;;;;;;;;;;2.80;69.50;;;;;;4982797;28;20351;-75
2021/01/15 07:02:36;;;;;;;;;;;2.70;69.50;;;;;;4986451;28;19929;-76
2021/01/15 07:05:03;;;;;;;;;;;2.70;69.30;;;;;;4988383;28;19930;-76
2021/01/15 07:07:30;;;;;;;;;;;2.80;69.10;;;;;;4988483;28;19940;-76
2021/01/15 07:09:59;;;;;;;;;;;2.70;68.80;;;;;;4972394;28;20004;-75
2021/01/15 07:12:27;;;;;;;;;;;2.80;68.30;;;;;;4982719;28;19926;-75
2021/01/15 07:14:58;;;;;;;;;;;2.80;68.00;;;;;;4966154;28;19996;-75
2021/01/15 07:17:30;;;;;;;;;;;2.80;68.00;;;;;;4982924;28;19926;-76
2021/01/15 07:20:19;;;;;;;;;;;2.80;67.80;;;;;;4985307;28;19926;-76
2021/01/15 07:22:52;;;;;;;;;;;2.80;67.50;;;;;;4956735;28;20346;-76
2021/01/15 07:25:24;;;;;;;;;;;2.80;67.30;;;;;;4962430;28;19941;-77
2021/01/15 07:27:55;;;;;;;;;;;2.80;67.10;;;;;;4970611;28;20342;-77
2021/01/15 07:30:26;;;;;;;;;;;2.80;66.70;;;;;;4953248;28;20317;-76
2021/01/15 07:32:55;;;;;;;;;;;2.80;66.60;;;;;;4982827;28;19957;-75
2021/01/15 07:35:25;;;;;;;;;;;2.80;66.50;;;;;;4983256;28;19926;-75
2021/01/15 07:38:10;;;;;;;;;;;2.80;66.50;;;;;;4986387;28;20349;-76
2021/01/15 07:40:39;;;;;;;;;;;2.80;66.40;;;;;;4987161;28;19940;-75
2021/01/15 07:43:07;;;;;;;;;;;2.80;66.40;;;;;;4965813;28;19926;-75
2021/01/15 07:45:39;;;;;;;;;;;2.80;66.00;;;;;;4979609;28;19929;-76
2021/01/15 07:48:07;;;;;;;;;;;2.70;66.10;;;;;;4988350;28;19934;-75
2021/01/15 07:50:40;;;;;;;;;;;2.80;66.00;;;;;;4987037;28;19961;-76
2021/01/15 07:53:09;;;;;;;;;;;2.80;65.90;;;;;;4988380;28;21413;-76
2021/01/15 07:55:55;;;;;;;;;;;2.70;66.10;;;;;;4969769;28;20337;-76
2021/01/15 07:58:46;;;;;;;;;;;2.70;66.20;;;;;;4961631;28;20089;-75
2021/01/15 08:01:16;;;;;;;;;;;2.70;66.10;;;;;;4972853;28;19926;-75
2021/01/15 08:03:46;;;;;;;;;;;2.70;66.00;;;;;;4982665;28;20016;-77
2021/01/15 08:06:16;;;;;;;;;;;2.70;66.10;;;;;;4963933;28;19926;-77
2021/01/15 08:09:02;;;;;;;;;;;2.70;66.20;;;;;;4973359;28;19969;-77
2021/01/15 08:11:29;;;;;;;;;;;2.60;66.50;;;;;;4985745;28;19969;-78
2021/01/15 08:14:11;;;;;;;;;;;2.60;66.30;;;;;;4959095;28;20336;-77
2021/01/15 08:16:37;;;;;;;;;;;2.60;65.90;;;;;;4975825;28;19936;-77
2021/01/15 08:19:08;;;;;;;;;;;2.60;66.20;;;;;;4997726;28;19972;-77
2021/01/15 08:21:35;;;;;;;;;;;2.60;66.30;;;;;;4995581;28;19977;-77
2021/01/15 08:24:05;;;;;;;;;;;2.60;66.50;;;;;;4972112;28;19930;-78
2021/01/15 08:26:50;;;;;;;;;;;2.50;66.50;;;;;;4985203;28;19936;-78
2021/01/15 08:29:17;;;;;;;;;;;2.60;67.00;;;;;;4989009;28;20305;-78
2021/01/15 08:31:44;;;;;;;;;;;2.60;67.00;;;;;;4974237;28;19934;-77
2021/01/15 08:34:15;;;;;;;;;;;2.50;67.10;;;;;;4989828;28;19945;-78
2021/01/15 08:36:42;;;;;;;;;;;2.50;67.20;;;;;;4982038;28;19930;-78
2021/01/15 08:39:09;;;;;;;;;;;2.50;67.50;;;;;;4986868;28;19934;-78
2021/01/15 08:41:35;;;;;;;;;;;2.50;67.60;;;;;;4970969;28;20042;-77
2021/01/15 08:44:02;;;;;;;;;;;2.50;67.70;;;;;;4957999;28;19926;-78
2021/01/15 08:46:31;;;;;;;;;;;2.50;67.80;;;;;;4988033;28;19988;-77
2021/01/15 08:49:00;;;;;;;;;;;2.50;68.00;;;;;;4993266;28;20476;-78
2021/01/15 08:51:27;;;;;;;;;;;2.50;68.00;;;;;;4982289;28;19926;-77
2021/01/15 08:54:04;;;;;;;;;;;2.60;68.10;;;;;;4981624;28;20037;-78
2021/01/15 08:56:36;;;;;;;;;;;2.60;68.00;;;;;;4983148;28;19934;-76
2021/01/15 08:59:03;;;;;;;;;;;2.60;67.80;;;;;;4979119;28;19945;-76
2021/01/15 09:01:31;;;;;;;;;;;2.70;68.00;;;;;;4977577;28;19940;-78
2021/01/15 09:04:04;;;;;;;;;;;2.70;67.70;;;;;;4985954;28;20341;-77
2021/01/15 09:06:31;;;;;;;;;;;2.70;67.70;;;;;;4982962;28;20041;-78
2021/01/15 09:08:58;;;;;;;;;;;2.70;67.70;;;;;;4969162;28;20150;-77
2021/01/15 09:11:25;;;;;;;;;;;2.70;67.40;;;;;;4982703;28;20004;-77
2021/01/15 09:13:52;;;;;;;;;;;2.80;67.10;;;;;;4979695;28;20061;-77
2021/01/15 09:16:23;;;;;;;;;;;2.70;66.90;;;;;;4983673;28;20424;-78
2021/01/15 09:19:03;;;;;;;;;;;2.80;67.10;;;;;;4983182;28;19933;-79
2021/01/15 09:21:30;;;;;;;;;;;2.80;67.10;;;;;;4980160;28;19926;-78
2021/01/15 09:23:56;;;;;;;;;;;2.80;67.00;;;;;;4985916;28;19926;-78
2021/01/15 09:26:22;;;;;;;;;;;2.80;67.00;;;;;;4978804;28;19926;-78
2021/01/15 09:28:48;;;;;;;;;;;2.90;66.80;;;;;;4985069;28;19932;-79
2021/01/15 09:31:16;;;;;;;;;;;2.90;66.60;;;;;;4967923;28;19926;-78
2021/01/15 09:33:50;;;;;;;;;;;3.00;66.70;;;;;;4984750;28;19958;-77
2021/01/15 09:36:21;;;;;;;;;;;3.00;66.40;;;;;;4977718;28;19933;-79
2021/01/15 09:38:48;;;;;;;;;;;3.10;66.00;;;;;;4984598;28;19932;-78
2021/01/15 09:41:15;;;;;;;;;;;3.10;66.20;;;;;;4969555;28;19926;-77
2021/01/15 09:43:42;;;;;;;;;;;3.20;66.00;;;;;;4986969;28;20004;-79
2021/01/15 09:46:17;;;;;;;;;;;3.30;65.90;;;;;;4986930;28;19926;-80
2021/01/15 09:48:46;;;;;;;;;;;3.40;65.90;;;;;;4991916;28;19926;-79
2021/01/15 09:51:12;;;;;;;;;;;3.50;65.50;;;;;;4985918;28;20278;-78
2021/01/15 09:53:39;;;;;;;;;;;3.50;65.20;;;;;;4993565;28;19933;-76
2021/01/15 09:56:05;;;;;;;;;;;3.70;64.90;;;;;;4990146;28;20388;-78
2021/01/15 09:58:34;;;;;;;;;;;3.80;64.70;;;;;;4971310;28;20289;-78
2021/01/15 10:01:00;;;;;;;;;;;4.00;64.50;;;;;;4975249;28;19934;-79
2021/01/15 10:03:27;;;;;;;;;;;4.20;64.50;;;;;;4983881;28;19910;-78
2021/01/15 10:05:54;;;;;;;;;;;4.40;63.60;;;;;;5000901;28;20008;-80
2021/01/15 10:08:24;;;;;;;;;;;4.50;63.10;;;;;;4980389;28;19926;-80
2021/01/15 10:10:50;;;;;;;;;;;4.60;62.50;;;;;;4988477;28;20690;-80
2021/01/15 10:13:16;;;;;;;;;;;4.70;62.30;;;;;;4960163;28;20408;-80
2021/01/15 10:15:42;;;;;;;;;;;4.80;62.10;;;;;;4987666;28;20482;-78
2021/01/15 10:18:09;;;;;;;;;;;4.90;61.70;;;;;;4984610;28;19949;-78
2021/01/15 10:20:35;;;;;;;;;;;5.00;61.30;;;;;;4988606;28;19932;-78
2021/01/15 10:23:02;;;;;;;;;;;5.00;61.10;;;;;;4981018;28;19989;-81
2021/01/15 10:25:28;;;;;;;;;;;5.10;60.90;;;;;;4985142;28;19932;-78
2021/01/15 10:27:54;;;;;;;;;;;5.20;60.40;;;;;;4987888;28;20005;-78
2021/01/15 10:30:21;;;;;;;;;;;5.20;59.90;;;;;;4969747;28;19933;-79
2021/01/15 10:32:48;;;;;;;;;;;5.30;59.90;;;;;;4952571;28;19926;-79
2021/01/15 10:35:14;;;;;;;;;;;5.30;59.90;;;;;;4990346;28;20211;-79
2021/01/15 10:37:41;;;;;;;;;;;5.40;59.90;;;;;;4973750;28;19961;-78
2021/01/15 10:40:08;;;;;;;;;;;5.40;59.20;;;;;;4969085;28;20313;-77
2021/01/15 10:42:42;;;;;;;;;;;5.50;59.10;;;;;;4970393;28;20384;-77
2021/01/15 10:45:09;;;;;;;;;;;5.50;59.10;;;;;;4966769;28;20552;-77
2021/01/15 10:47:39;;;;;;;;;;;5.50;59.50;;;;;;4983012;28;20022;-77
2021/01/15 10:50:13;;;;;;;;;;;5.50;59.20;;;;;;4985321;28;19929;-77
2021/01/15 10:52:39;;;;;;;;;;;5.50;58.90;;;;;;4965486;28;19934;-77
2021/01/15 10:55:06;;;;;;;;;;;5.40;59.30;;;;;;4983361;28;20008;-77
2021/01/15 10:57:32;;;;;;;;;;;5.40;59.60;;;;;;4986791;28;19993;-78
2021/01/15 10:59:58;;;;;;;;;;;5.40;59.90;;;;;;4981244;28;20013;-77
2021/01/15 11:02:24;;;;;;;;;;;5.30;60.00;;;;;;4980629;28;19948;-77
2021/01/15 11:04:51;;;;;;;;;;;5.30;59.80;;;;;;4985888;28;19930;-77
2021/01/15 11:07:17;;;;;;;;;;;5.30;60.00;;;;;;4967808;28;20032;-77
2021/01/15 11:09:45;;;;;;;;;;;5.30;60.10;;;;;;4967660;28;19989;-77
2021/01/15 11:12:11;;;;;;;;;;;5.30;59.80;;;;;;4949006;28;20021;-77
2021/01/15 11:14:38;;;;;;;;;;;5.30;60.00;;;;;;4983590;28;20016;-77
2021/01/15 11:17:05;;;;;;;;;;;5.30;60.20;;;;;;4983298;28;19941;-77
2021/01/15 11:19:32;;;;;;;;;;;5.20;60.40;;;;;;4952824;28;20001;-77
2021/01/15 11:21:59;;;;;;;;;;;5.20;60.40;;;;;;4981426;28;20020;-77
2021/01/15 11:24:25;;;;;;;;;;;5.20;60.50;;;;;;4984427;28;19945;-77
2021/01/15 11:26:51;;;;;;;;;;;5.20;60.70;;;;;;4975310;28;19926;-77
2021/01/15 11:29:18;;;;;;;;;;;5.10;60.60;;;;;;4977869;28;19926;-77
2021/01/15 11:31:44;;;;;;;;;;;5.10;60.70;;;;;;4978795;28;20506;-77
2021/01/15 11:34:11;;;;;;;;;;;5.10;60.40;;;;;;4973441;28;20447;-77
2021/01/15 11:36:38;;;;;;;;;;;5.10;60.80;;;;;;4982699;28;19954;-77
2021/01/15 11:39:06;;;;;;;;;;;5.10;61.00;;;;;;4985459;28;19926;-77
2021/01/15 11:41:32;;;;;;;;;;;5.10;61.00;;;;;;4987077;28;19926;-77
2021/01/15 11:44:04;;;;;;;;;;;5.10;61.10;;;;;;4982716;28;19926;-77
2021/01/15 11:46:30;;;;;;;;;;;5.10;61.20;;;;;;4986056;28;20977;-77
2021/01/15 11:49:00;;;;;;;;;;;5.10;61.30;;;;;;4981712;28;20434;-77
2021/01/15 11:51:27;;;;;;;;;;;5.10;61.20;;;;;;4973599;28;19926;-77
2021/01/15 11:53:53;;;;;;;;;;;5.10;61.30;;;;;;4979719;28;19932;-77
2021/01/15 11:56:21;;;;;;;;;;;5.10;61.70;;;;;;4992466;28;19914;-77
2021/01/15 11:58:47;;;;;;;;;;;5.00;62.00;;;;;;5001080;28;19968;-77
2021/01/15 12:01:17;;;;;;;;;;;5.00;61.90;;;;;;4969271;28;19954;-77
2021/01/15 12:03:45;;;;;;;;;;;5.00;62.10;;;;;;4981454;28;19990;-77
2021/01/15 12:06:12;;;;;;;;;;;5.00;62.40;;;;;;4965007;28;20262;-77
2021/01/15 12:08:42;;;;;;;;;;;5.00;62.60;;;;;;4969842;28;19934;-77
2021/01/15 12:11:08;;;;;;;;;;;5.10;62.90;;;;;;4978067;28;20024;-77
2021/01/15 12:13:35;;;;;;;;;;;5.10;62.80;;;;;;4982242;28;19933;-77
2021/01/15 12:16:01;;;;;;;;;;;5.00;63.00;;;;;;4981628;28;19926;-77
2021/01/15 12:18:28;;;;;;;;;;;5.00;63.20;;;;;;4980339;28;19926;-77
2021/01/15 12:20:55;;;;;;;;;;;5.00;63.30;;;;;;4976435;28;19933;-77
2021/01/15 12:23:23;;;;;;;;;;;5.00;63.30;;;;;;4983750;28;19926;-77
2021/01/15 12:25:49;;;;;;;;;;;5.00;63.40;;;;;;4979809;28;19957;-77
2021/01/15 12:28:18;;;;;;;;;;;5.00;63.50;;;;;;4981511;28;19988;-78
2021/01/15 12:30:46;;;;;;;;;;;5.10;63.60;;;;;;4983726;28;20012;-78
2021/01/15 12:33:14;;;;;;;;;;;5.00;63.60;;;;;;4966016;28;19926;-78
2021/01/15 12:35:44;;;;;;;;;;;5.00;63.70;;;;;;4964527;28;19968;-78
2021/01/15 12:38:12;;;;;;;;;;;5.00;63.90;;;;;;4964876;28;19930;-78
2021/01/15 12:40:39;;;;;;;;;;;5.00;64.00;;;;;;4962270;28;19988;-78
2021/01/15 12:43:05;;;;;;;;;;;5.00;64.10;;;;;;4983773;28;19961;-78
2021/01/15 12:45:32;;;;;;;;;;;5.00;64.00;;;;;;4970129;28;19957;-79
2021/01/15 12:47:58;;;;;;;;;;;5.10;64.10;;;;;;4974838;28;19930;-78
2021/01/15 12:50:25;;;;;;;;;;;5.10;64.20;;;;;;4968597;28;19953;-78
2021/01/15 12:52:52;;;;;;;;;;;5.00;64.10;;;;;;4986197;28;20002;-79
2021/01/15 12:55:22;;;;;;;;;;;5.00;64.30;;;;;;4980710;28;20394;-78
2021/01/15 12:57:49;;;;;;;;;;;5.00;64.60;;;;;;4966240;28;19948;-78
2021/01/15 13:00:17;;;;;;;;;;;4.90;64.80;;;;;;4988128;28;19944;-79
2021/01/15 13:02:47;;;;;;;;;;;4.90;65.00;;;;;;4974692;28;20012;-78
2021/01/15 13:05:14;;;;;;;;;;;4.90;65.20;;;;;;4987058;28;19952;-79
2021/01/15 13:07:43;;;;;;;;;;;4.90;65.20;;;;;;4964319;28;20301;-76
2021/01/15 13:10:10;;;;;;;;;;;4.90;65.40;;;;;;4984483;28;19934;-78
2021/01/15 13:12:38;;;;;;;;;;;4.90;65.40;;;;;;4967234;28;20269;-79
2021/01/15 13:15:05;;;;;;;;;;;4.80;65.60;;;;;;4972581;28;20463;-79
2021/01/15 13:17:53;;;;;;;;;;;4.80;65.70;;;;;;4983335;28;20028;-79
2021/01/15 13:20:22;;;;;;;;;;;4.80;65.80;;;;;;4983976;28;19948;-80
2021/01/15 13:22:59;;;;;;;;;;;4.80;65.80;;;;;;4978153;28;19930;-79
2021/01/15 13:25:25;;;;;;;;;;;4.80;65.90;;;;;;4968772;28;19976;-81
2021/01/15 13:28:02;;;;;;;;;;;4.70;66.10;;;;;;4984320;28;19933;-79
2021/01/15 13:30:29;;;;;;;;;;;4.70;66.30;;;;;;4990132;28;19926;-79
2021/01/15 13:33:13;;;;;;;;;;;4.60;66.30;;;;;;4991471;28;19936;-79
2021/01/15 13:35:42;;;;;;;;;;;4.60;66.60;;;;;;4967185;28;19980;-79
2021/01/15 13:38:08;;;;;;;;;;;4.60;66.80;;;;;;4976522;28;19930;-79
2021/01/15 13:40:35;;;;;;;;;;;4.60;67.00;;;;;;4965254;28;20057;-82
2021/01/15 13:43:01;;;;;;;;;;;4.60;67.00;;;;;;4969142;28;19970;-79
2021/01/15 13:45:27;;;;;;;;;;;4.60;67.20;;;;;;4992414;28;19949;-81
2021/01/15 13:47:54;;;;;;;;;;;4.50;67.10;;;;;;4992932;28;19932;-80
2021/01/15 13:50:24;;;;;;;;;;;4.50;67.20;;;;;;4993495;28;19933;-81
2021/01/15 13:52:50;;;;;;;;;;;4.50;67.50;;;;;;4988295;28;19933;-80
2021/01/15 13:55:17;;;;;;;;;;;4.40;67.50;;;;;;4996184;28;19984;-78
2021/01/15 13:57:44;;;;;;;;;;;4.50;67.40;;;;;;4968203;28;19930;-79
2021/01/15 14:00:10;;;;;;;;;;;4.40;67.50;;;;;;4984582;28;19944;-80
2021/01/15 14:02:40;;;;;;;;;;;4.40;67.60;;;;;;4988936;28;20250;-79
2021/01/15 14:05:10;;;;;;;;;;;4.40;67.80;;;;;;4991195;28;19934;-79
2021/01/15 14:07:39;;;;;;;;;;;4.40;67.80;;;;;;4988472;28;20255;-81
2021/01/15 14:10:06;;;;;;;;;;;4.40;67.80;;;;;;4989499;28;19932;-81
2021/01/15 14:12:32;;;;;;;;;;;4.40;67.90;;;;;;4990425;28;19926;-81
2021/01/15 14:14:59;;;;;;;;;;;4.40;67.90;;;;;;4979647;28;19929;-81
2021/01/15 14:17:25;;;;;;;;;;;4.40;67.80;;;;;;4968961;28;19926;-81
2021/01/15 14:19:51;;;;;;;;;;;4.40;67.90;;;;;;4986613;28;20017;-80
2021/01/15 14:22:17;;;;;;;;;;;4.40;67.70;;;;;;4990495;28;19957;-81
2021/01/15 14:24:51;;;;;;;;;;;4.40;67.70;;;;;;4990211;28;19940;-81
2021/01/15 14:27:19;;;;;;;;;;;4.40;67.60;;;;;;4971759;28;19976;-82
2021/01/15 14:29:45;;;;;;;;;;;4.40;67.80;;;;;;4984767;28;19980;-81
2021/01/15 14:32:12;;;;;;;;;;;4.40;67.80;;;;;;4983772;28;19930;-81
2021/01/15 14:34:38;;;;;;;;;;;4.40;67.90;;;;;;4951112;28;19961;-81
2021/01/15 14:37:05;;;;;;;;;;;4.40;67.70;;;;;;4970523;28;19926;-81
2021/01/15 14:39:32;;;;;;;;;;;4.40;67.50;;;;;;4987460;28;19933;-81
2021/01/15 14:41:59;;;;;;;;;;;4.40;67.40;;;;;;4987376;28;19933;-81
2021/01/15 14:44:25;;;;;;;;;;;4.40;67.20;;;;;;4988425;28;19934;-81